Walkertown, Kentucky
Current Conditions -  °F | °C
As of 4:53 PM on Monday 26 Jan 2015 (Local Time) from KJKL Reporting Station
Overcast Overcast  
Wind Chill: 18°   Ceiling: 800
Heat Index: 26°   Visibility: 9mi
Dew Point: 22°   Wind: 7mph
Humidity: 84%   Direction: 260°W
Pressure: 29.86"   Gusts: NA
Location:  37.2415°N, 83.2013°W
Report Text: KJKL 262153Z AUTO 26006KT 9SM OVC008 M03/M06 A2986 RMK AO2 SLP121 T10331056
Loading
Personal Weather Stations






























Interactive Weather Map New forecast layout! Learn more

10-Day Weather Forecast

Advertisements
Track Severe Weather on mobile